createdAt,value
2023-05-24T00:01:43.874Z,5.57
2023-05-24T00:04:12.572Z,5.57
2023-05-24T00:06:42.685Z,5.63
2023-05-24T00:09:14.726Z,5.53
2023-05-24T00:11:43.775Z,5.63
2023-05-24T00:14:11.958Z,5.27
2023-05-24T00:16:40.934Z,5.53
2023-05-24T00:19:11.345Z,5.20
2023-05-24T00:21:41.544Z,5.23
2023-05-24T00:24:11.191Z,5.47
2023-05-24T00:26:40.722Z,5.67
2023-05-24T00:29:09.078Z,5.70
2023-05-24T00:31:37.219Z,5.50
2023-05-24T00:34:06.778Z,5.00
2023-05-24T00:36:35.771Z,5.30
2023-05-24T00:39:04.440Z,5.50
2023-05-24T00:41:32.804Z,5.70
2023-05-24T00:44:04.492Z,5.47
2023-05-24T00:46:34.999Z,5.73
2023-05-24T00:49:03.314Z,5.37
2023-05-24T00:51:34.028Z,5.37
2023-05-24T00:54:04.509Z,5.70
2023-05-24T00:56:32.892Z,5.27
2023-05-24T00:59:02.472Z,5.47
2023-05-24T01:01:32.824Z,5.83
2023-05-24T01:04:01.114Z,5.47
2023-05-24T01:06:36.338Z,6.03
2023-05-24T01:09:18.341Z,5.70
2023-05-24T01:12:03.890Z,5.40
2023-05-24T01:14:44.814Z,5.73
2023-05-24T01:17:22.204Z,5.53
2023-05-24T01:19:53.549Z,5.23
2023-05-24T01:22:40.359Z,5.30
2023-05-24T01:25:13.488Z,5.80
2023-05-24T01:27:48.270Z,5.60
2023-05-24T01:30:16.720Z,5.60
2023-05-24T01:32:45.213Z,5.23
2023-05-24T01:35:14.457Z,5.70
2023-05-24T01:37:42.869Z,5.57
2023-05-24T01:40:12.536Z,5.50
2023-05-24T01:42:50.052Z,6.10
2023-05-24T01:45:27.833Z,5.30
2023-05-24T01:48:06.832Z,5.83
2023-05-24T01:50:38.961Z,5.73
2023-05-24T01:53:11.029Z,5.37
2023-05-24T01:55:44.834Z,6.30
2023-05-24T01:58:17.323Z,5.57
2023-05-24T02:00:50.061Z,5.50
2023-05-24T02:03:18.871Z,5.90
2023-05-24T02:05:47.291Z,6.00
2023-05-24T02:08:15.634Z,5.97
2023-05-24T02:10:45.645Z,5.90
2023-05-24T02:13:16.306Z,6.07
2023-05-24T02:15:45.847Z,6.17
2023-05-24T02:18:14.988Z,6.30
2023-05-24T02:20:45.104Z,5.77
2023-05-24T02:23:13.600Z,6.10
2023-05-24T02:25:44.940Z,5.53
2023-05-24T02:28:14.482Z,6.10
2023-05-24T02:30:44.849Z,6.13
2023-05-24T02:33:13.488Z,6.17
2023-05-24T02:35:42.510Z,6.17
2023-05-24T02:38:10.713Z,5.97
2023-05-24T02:40:40.400Z,5.77
2023-05-24T02:43:09.792Z,6.10
2023-05-24T02:45:39.561Z,6.67
2023-05-24T02:48:07.776Z,5.43
2023-05-24T02:50:37.779Z,6.47
2023-05-24T02:53:07.416Z,5.87
2023-05-24T02:55:35.510Z,5.70
2023-05-24T02:58:03.997Z,6.00
2023-05-24T03:00:38.207Z,6.50
2023-05-24T03:03:08.856Z,6.47
2023-05-24T03:05:37.176Z,6.93
2023-05-24T03:08:06.418Z,6.27
2023-05-24T03:10:34.778Z,6.53
2023-05-24T03:13:06.348Z,6.57
2023-05-24T03:15:37.373Z,6.30
2023-05-24T03:18:06.594Z,6.60
2023-05-24T03:20:36.930Z,6.47
2023-05-24T03:23:05.159Z,6.17
2023-05-24T03:25:34.711Z,5.93
2023-05-24T03:28:03.529Z,6.73
2023-05-24T03:30:33.898Z,6.13
2023-05-24T03:33:02.513Z,6.67
2023-05-24T03:35:30.799Z,6.50
2023-05-24T03:38:00.288Z,6.57
2023-05-24T03:40:34.613Z,6.57
2023-05-24T03:43:12.038Z,6.53
2023-05-24T03:45:48.361Z,6.53
2023-05-24T03:48:20.255Z,6.73
2023-05-24T03:50:48.951Z,6.87
2023-05-24T03:53:20.036Z,6.77
2023-05-24T03:55:49.905Z,6.47
2023-05-24T03:58:18.114Z,6.57
2023-05-24T04:00:48.203Z,6.83
2023-05-24T04:03:16.473Z,6.77
2023-05-24T04:05:45.482Z,6.90
2023-05-24T04:08:15.022Z,6.83
2023-05-24T04:10:44.858Z,7.33
2023-05-24T04:13:16.436Z,6.77
2023-05-24T04:15:44.818Z,6.20
2023-05-24T04:18:15.028Z,6.30
2023-05-24T04:20:43.407Z,7.23
2023-05-24T04:23:12.052Z,6.43
2023-05-24T04:25:40.344Z,6.37
2023-05-24T04:28:15.335Z,6.40
2023-05-24T04:30:46.191Z,5.87
2023-05-24T04:33:14.998Z,6.73
2023-05-24T04:35:44.366Z,6.40
2023-05-24T04:38:13.905Z,5.83
2023-05-24T04:40:42.369Z,6.30
2023-05-24T04:43:12.942Z,6.30
2023-05-24T04:45:41.864Z,6.40
2023-05-24T04:48:11.257Z,6.40
2023-05-24T04:50:39.905Z,6.17
2023-05-24T04:53:08.129Z,6.57
2023-05-24T04:55:36.378Z,6.37
2023-05-24T04:58:04.561Z,5.83
2023-05-24T05:00:34.903Z,5.73
2023-05-24T05:03:03.950Z,5.83
2023-05-24T05:05:32.785Z,6.07
2023-05-24T05:08:03.767Z,6.23
2023-05-24T05:10:33.968Z,5.50
2023-05-24T05:13:02.914Z,4.93
2023-05-24T05:15:31.081Z,5.93
2023-05-24T05:18:04.996Z,5.53
2023-05-24T05:20:33.175Z,5.73
2023-05-24T05:23:01.441Z,5.87
2023-05-24T05:25:31.064Z,6.27
2023-05-24T05:27:59.135Z,6.70
2023-05-24T05:30:27.942Z,6.17
2023-05-24T05:32:59.511Z,5.90
2023-05-24T05:35:29.326Z,5.90
2023-05-24T05:37:58.110Z,6.10
2023-05-24T05:40:26.267Z,6.10
2023-05-24T05:42:54.486Z,5.80
2023-05-24T05:45:22.656Z,5.83
2023-05-24T05:47:51.390Z,5.70
2023-05-24T05:50:21.957Z,6.43
2023-05-24T05:52:51.408Z,6.07
2023-05-24T05:55:20.170Z,6.03
2023-05-24T05:57:48.295Z,6.40
2023-05-24T06:00:17.612Z,6.20
2023-05-24T06:02:48.565Z,6.03
2023-05-24T06:05:16.817Z,6.30
2023-05-24T06:07:47.004Z,6.03
2023-05-24T06:10:16.634Z,6.37
2023-05-24T06:12:44.971Z,6.22
2023-05-24T06:15:16.658Z,6.23
2023-05-24T06:17:48.046Z,6.10
2023-05-24T06:20:18.037Z,6.03
2023-05-24T06:22:46.421Z,5.20
2023-05-24T06:25:19.979Z,4.78
2023-05-24T06:27:49.042Z,4.97
2023-05-24T06:30:17.201Z,5.32
2023-05-24T06:32:46.080Z,5.97
2023-05-24T06:35:14.880Z,5.40
2023-05-24T06:37:43.627Z,5.05
2023-05-24T06:40:14.199Z,4.85
2023-05-24T06:42:43.976Z,5.00
2023-05-24T06:45:13.661Z,5.15
2023-05-24T06:47:44.072Z,4.13
2023-05-24T06:50:12.540Z,4.68
2023-05-24T06:52:41.555Z,5.38
2023-05-24T06:55:10.745Z,4.90
2023-05-24T06:57:39.028Z,4.70
2023-05-24T07:00:12.563Z,4.30
2023-05-24T07:02:44.272Z,4.85
2023-05-24T07:05:12.797Z,5.28
2023-05-24T07:07:41.304Z,4.93
2023-05-24T07:10:11.557Z,4.80
2023-05-24T07:12:40.283Z,4.57
2023-05-24T07:15:14.000Z,4.68
2023-05-24T07:17:43.089Z,4.53
2023-05-24T07:20:14.105Z,4.38
2023-05-24T07:22:44.078Z,4.60
2023-05-24T07:25:13.499Z,4.47
2023-05-24T07:27:42.353Z,4.65
2023-05-24T07:30:23.429Z,4.20
2023-05-24T07:32:52.822Z,4.40
2023-05-24T07:35:22.849Z,4.70
2023-05-24T07:37:51.021Z,4.63
2023-05-24T07:40:23.224Z,4.22
2023-05-24T07:42:51.736Z,4.32
2023-05-24T07:45:22.060Z,4.28
2023-05-24T07:47:50.381Z,4.32
2023-05-24T07:50:19.451Z,4.70
2023-05-24T07:52:47.617Z,4.78
2023-05-24T07:55:17.913Z,5.10
2023-05-24T07:57:47.783Z,4.55
2023-05-24T08:00:17.074Z,4.38
2023-05-24T08:02:47.872Z,4.70
2023-05-24T08:05:17.850Z,8.35
2023-05-24T08:07:46.792Z,4.80
2023-05-24T08:10:14.953Z,4.35
2023-05-24T08:12:43.462Z,4.47
2023-05-24T08:15:12.627Z,4.13
2023-05-24T08:17:40.950Z,3.95
2023-05-24T08:20:14.475Z,3.80
2023-05-24T08:22:43.233Z,5.00
2023-05-24T08:25:12.183Z,4.45
2023-05-24T08:27:40.302Z,4.30
2023-05-24T08:30:09.492Z,4.03
2023-05-24T08:32:38.580Z,5.25
2023-05-24T08:35:19.551Z,4.25
2023-05-24T08:37:51.644Z,3.85
2023-05-24T08:40:20.025Z,4.07
2023-05-24T08:42:52.085Z,4.78
2023-05-24T08:45:23.596Z,4.07
2023-05-24T08:47:54.252Z,4.03
2023-05-24T08:50:23.292Z,5.20
2023-05-24T08:52:55.072Z,5.82
2023-05-24T08:55:26.291Z,4.55
2023-05-24T08:57:57.121Z,4.05
2023-05-24T09:00:25.767Z,4.13
2023-05-24T09:02:55.025Z,3.60
2023-05-24T09:05:27.193Z,4.00
2023-05-24T09:07:58.085Z,3.72
2023-05-24T09:10:29.796Z,4.28
2023-05-24T09:13:06.833Z,4.00
2023-05-24T09:15:35.184Z,4.35
2023-05-24T09:18:05.171Z,3.60
2023-05-24T09:20:33.365Z,3.72
2023-05-24T09:23:05.147Z,3.70
2023-05-24T09:25:33.391Z,4.00
2023-05-24T09:28:07.550Z,4.10
2023-05-24T09:30:39.971Z,3.80
2023-05-24T09:33:09.368Z,3.92
2023-05-24T09:35:38.100Z,3.90
2023-05-24T09:38:08.225Z,3.83
2023-05-24T09:40:36.447Z,3.95
2023-05-24T09:43:10.188Z,3.80
2023-05-24T09:45:49.254Z,4.45
2023-05-24T09:48:18.733Z,3.97
2023-05-24T09:50:58.217Z,3.78
2023-05-24T09:53:29.115Z,4.93
2023-05-24T09:55:57.268Z,4.18
2023-05-24T09:58:33.152Z,3.90
2023-05-24T10:01:09.009Z,3.83
2023-05-24T10:03:40.301Z,4.32
2023-05-24T10:06:08.752Z,3.70
2023-05-24T10:08:39.190Z,3.80
2023-05-24T10:11:08.148Z,3.70
2023-05-24T10:16:30.361Z,4.22
2023-05-24T10:18:58.743Z,4.30
2023-05-24T10:21:32.925Z,4.28
2023-05-24T10:24:09.001Z,4.38
2023-05-24T10:26:39.443Z,4.40
2023-05-24T10:29:11.355Z,4.00
2023-05-24T10:31:45.449Z,4.63
2023-05-24T10:34:14.006Z,4.95
2023-05-24T10:36:45.180Z,4.55
2023-05-24T10:39:14.764Z,3.65
2023-05-24T10:41:43.421Z,3.70
2023-05-24T10:44:14.268Z,3.47
2023-05-24T10:47:11.407Z,5.47
2023-05-24T10:49:51.452Z,5.68
2023-05-24T10:52:20.126Z,4.65
2023-05-24T10:55:08.201Z,5.07
2023-05-24T10:57:37.172Z,5.95
2023-05-24T11:03:02.887Z,6.22
2023-05-24T11:05:36.890Z,6.25
2023-05-24T11:08:09.537Z,5.97
2023-05-24T11:10:43.657Z,5.43
2023-05-24T11:13:12.259Z,5.88
2023-05-24T11:15:41.459Z,6.68
2023-05-24T11:18:17.325Z,6.70
2023-05-24T11:20:47.372Z,6.75
2023-05-24T11:23:18.197Z,6.28
2023-05-24T11:25:51.226Z,6.72
2023-05-24T11:28:20.275Z,6.63
2023-05-24T11:30:49.131Z,6.18
2023-05-24T11:33:18.762Z,5.40
2023-05-24T11:35:50.508Z,5.97
2023-05-24T11:38:24.216Z,6.38
2023-05-24T11:40:59.731Z,5.65
2023-05-24T11:43:28.067Z,5.78
2023-05-24T11:45:57.293Z,5.47
2023-05-24T11:48:27.190Z,4.88
2023-05-24T11:50:55.616Z,5.05
2023-05-24T11:53:26.247Z,5.30
2023-05-24T11:55:55.034Z,5.57
2023-05-24T11:58:33.811Z,5.57
2023-05-24T12:01:04.014Z,5.93
2023-05-24T12:03:34.370Z,5.50
2023-05-24T12:06:02.756Z,6.10
2023-05-24T12:08:30.963Z,6.55
2023-05-24T12:11:03.313Z,5.95
2023-05-24T12:13:32.944Z,5.82
2023-05-24T12:16:02.280Z,5.30
2023-05-24T12:18:31.041Z,5.35
2023-05-24T12:21:01.519Z,5.32
2023-05-24T12:23:32.067Z,5.50
2023-05-24T12:26:01.067Z,5.70
2023-05-24T12:28:37.919Z,6.40
2023-05-24T12:31:08.638Z,5.22
2023-05-24T12:33:38.257Z,5.70
2023-05-24T12:36:06.851Z,5.47
2023-05-24T12:38:34.970Z,5.13
2023-05-24T12:41:12.436Z,5.05
2023-05-24T12:43:44.468Z,4.60
2023-05-24T12:46:15.252Z,4.70
2023-05-24T12:48:43.441Z,5.32
2023-05-24T12:51:12.387Z,4.90
2023-05-24T12:53:41.262Z,4.65
2023-05-24T12:56:13.476Z,5.03
2023-05-24T12:58:43.283Z,3.90
2023-05-24T13:01:12.918Z,4.97
2023-05-24T13:03:42.262Z,5.15
2023-05-24T13:06:10.469Z,6.47
2023-05-24T13:08:41.279Z,4.95
2023-05-24T13:11:12.601Z,4.75
2023-05-24T13:13:40.839Z,4.13
2023-05-24T13:16:10.688Z,4.65
2023-05-24T13:18:40.506Z,4.63
2023-05-24T13:21:11.356Z,4.45
2023-05-24T13:23:40.649Z,4.38
2023-05-24T13:26:08.950Z,4.20
2023-05-24T13:28:37.145Z,4.13
2023-05-24T13:31:06.596Z,4.22
2023-05-24T13:33:35.296Z,4.53
2023-05-24T13:36:05.596Z,4.30
2023-05-24T13:38:34.136Z,6.80
2023-05-24T13:41:02.312Z,5.47
2023-05-24T13:43:31.735Z,4.13
2023-05-24T13:46:00.163Z,6.35
2023-05-24T13:48:28.465Z,4.10
2023-05-24T13:50:57.324Z,3.90
2023-05-24T13:53:28.865Z,4.40
2023-05-24T13:55:57.077Z,4.40
2023-05-24T13:58:25.270Z,4.55
2023-05-24T14:00:53.554Z,4.78
2023-05-24T14:03:21.809Z,4.78
2023-05-24T14:05:50.052Z,4.55
2023-05-24T14:08:23.383Z,3.80
2023-05-24T14:11:02.971Z,3.30
2023-05-24T14:16:07.135Z,4.20
2023-05-24T14:18:39.264Z,4.15
2023-05-24T14:21:07.651Z,4.80
2023-05-24T14:23:35.871Z,4.78
2023-05-24T14:26:05.584Z,4.57
2023-05-24T14:28:37.419Z,5.03
2023-05-24T14:31:05.970Z,5.30
2023-05-24T14:33:34.227Z,5.30
2023-05-24T14:36:02.581Z,5.80
2023-05-24T14:38:30.801Z,5.32
2023-05-24T14:41:00.412Z,5.22
2023-05-24T14:43:30.072Z,5.07
2023-05-24T14:45:58.286Z,5.18
2023-05-24T14:48:26.834Z,4.60
2023-05-24T14:50:56.862Z,4.60
2023-05-24T14:53:25.030Z,4.47
2023-05-24T14:55:54.491Z,4.82
2023-05-24T14:58:22.740Z,4.45
2023-05-24T15:00:52.309Z,4.60
2023-05-24T15:03:23.234Z,4.40
2023-05-24T15:05:52.407Z,4.65
2023-05-24T15:08:21.030Z,4.72
2023-05-24T15:10:49.316Z,4.90
2023-05-24T15:13:17.923Z,4.90
2023-05-24T15:15:51.595Z,5.30
2023-05-24T15:18:21.339Z,5.53
2023-05-24T15:20:50.016Z,5.65
2023-05-24T15:23:19.961Z,5.60
2023-05-24T15:25:51.102Z,5.32
2023-05-24T15:28:20.092Z,5.22
2023-05-24T15:30:48.351Z,5.13
2023-05-24T15:33:17.132Z,5.40
2023-05-24T15:35:47.211Z,4.88
2023-05-24T15:38:18.780Z,9.40
2023-05-24T15:40:48.796Z,22.77
2023-05-24T15:43:19.162Z,10.45
2023-05-24T15:45:48.346Z,6.10
2023-05-24T15:48:16.556Z,5.53
2023-05-24T15:51:25.569Z,5.30
2023-05-24T15:53:37.072Z,5.53
2023-05-24T15:56:05.544Z,5.50
2023-05-24T15:58:33.736Z,5.70
2023-05-24T16:01:03.333Z,5.40
2023-05-24T16:03:31.657Z,5.53
2023-05-24T16:06:01.367Z,5.82
2023-05-24T16:08:29.656Z,5.22
2023-05-24T16:10:57.897Z,5.95
2023-05-24T16:13:26.421Z,5.85
2023-05-24T16:16:00.693Z,6.45
2023-05-24T16:18:33.886Z,6.88
2023-05-24T16:21:07.043Z,6.60
2023-05-24T16:23:35.169Z,26.15
2023-05-24T16:26:03.338Z,8.88
2023-05-24T16:28:31.824Z,8.75
2023-05-24T16:31:03.038Z,8.88
2023-05-24T16:33:35.174Z,9.57
2023-05-24T16:36:04.613Z,10.35
2023-05-24T16:38:34.580Z,10.65
2023-05-24T16:41:02.830Z,11.90
2023-05-24T16:43:33.440Z,11.32
2023-05-24T16:46:03.036Z,11.10
2023-05-24T16:48:31.766Z,13.40
2023-05-24T16:51:00.937Z,12.18
2023-05-24T16:53:29.236Z,12.02
2023-05-24T16:55:58.790Z,16.55
2023-05-24T16:58:31.151Z,12.02
2023-05-24T17:00:59.379Z,12.45
2023-05-24T17:03:29.387Z,12.35
2023-05-24T17:06:03.551Z,12.00
2023-05-24T17:08:34.016Z,12.20
2023-05-24T17:11:04.543Z,11.25
2023-05-24T17:13:33.209Z,11.27
2023-05-24T17:16:07.451Z,11.23
2023-05-24T17:18:35.721Z,10.75
2023-05-24T17:21:05.826Z,11.02
2023-05-24T17:23:36.520Z,10.68
2023-05-24T17:26:08.203Z,10.75
2023-05-24T17:28:37.153Z,10.68
2023-05-24T17:31:08.772Z,11.15
2023-05-24T17:33:40.219Z,11.07
2023-05-24T17:36:09.624Z,10.43
2023-05-24T17:38:39.024Z,11.95
2023-05-24T17:41:09.874Z,12.52
2023-05-24T17:43:41.225Z,11.02
2023-05-24T17:46:14.234Z,10.82
2023-05-24T17:48:42.910Z,11.07
2023-05-24T17:51:11.853Z,10.90
2023-05-24T17:53:41.209Z,10.67
2023-05-24T17:56:10.918Z,10.25
2023-05-24T17:58:39.271Z,21.85
2023-05-24T18:01:08.777Z,10.57
2023-05-24T18:03:38.122Z,10.65
2023-05-24T18:06:07.277Z,10.73
2023-05-24T18:08:37.867Z,10.05
2023-05-24T18:11:13.252Z,10.90
2023-05-24T18:13:46.543Z,10.88
2023-05-24T18:16:17.334Z,11.53
2023-05-24T18:18:45.710Z,10.07
2023-05-24T18:21:14.456Z,10.87
2023-05-24T18:23:43.905Z,10.90
2023-05-24T18:26:16.560Z,10.80
2023-05-24T18:28:44.853Z,10.37
2023-05-24T18:31:14.770Z,10.73
2023-05-24T18:33:43.603Z,10.80
2023-05-24T18:36:12.769Z,10.73
2023-05-24T18:38:41.128Z,10.83
2023-05-24T18:41:12.165Z,10.90
2023-05-24T18:43:42.913Z,10.20
2023-05-24T18:46:13.867Z,11.17
2023-05-24T18:48:42.308Z,11.00
2023-05-24T18:51:10.621Z,11.13
2023-05-24T18:53:40.191Z,11.63
2023-05-24T18:56:08.571Z,11.00
2023-05-24T18:58:36.807Z,10.70
2023-05-24T19:01:06.380Z,11.03
2023-05-24T19:03:34.653Z,11.07
2023-05-24T19:06:02.959Z,11.27
2023-05-24T19:08:34.443Z,10.67
2023-05-24T19:11:02.793Z,10.43
2023-05-24T19:13:30.981Z,10.90
2023-05-24T19:16:00.697Z,11.77
2023-05-24T19:18:30.498Z,11.93
2023-05-24T19:21:02.296Z,11.30
2023-05-24T19:23:30.540Z,11.60
2023-05-24T19:25:59.520Z,10.87
2023-05-24T19:28:27.710Z,10.90
2023-05-24T19:30:55.921Z,11.07
2023-05-24T19:33:24.176Z,10.93
2023-05-24T19:35:53.684Z,10.97
2023-05-24T19:38:23.230Z,10.47
2023-05-24T19:40:51.550Z,11.20
2023-05-24T19:43:19.726Z,10.90
2023-05-24T19:45:51.817Z,11.63
2023-05-24T19:48:23.482Z,11.10
2023-05-24T19:50:53.150Z,10.93
2023-05-24T19:53:21.976Z,11.13
2023-05-24T19:55:50.467Z,11.10
2023-05-24T19:58:26.507Z,11.20
2023-05-24T20:00:54.798Z,11.60
2023-05-24T20:03:23.080Z,10.53
2023-05-24T20:05:57.514Z,11.00
2023-05-24T20:08:34.629Z,10.57
2023-05-24T20:11:09.354Z,11.80
2023-05-24T20:13:37.636Z,11.03
2023-05-24T20:16:06.202Z,11.13
2023-05-24T20:18:36.394Z,10.70
2023-05-24T20:21:04.719Z,11.53
2023-05-24T20:23:34.213Z,11.40
2023-05-24T20:26:03.364Z,11.37
2023-05-24T20:28:32.168Z,12.10
2023-05-24T20:31:01.318Z,12.10
2023-05-24T20:33:29.519Z,11.13
2023-05-24T20:35:59.579Z,11.27
2023-05-24T20:38:32.642Z,12.20
2023-05-24T20:41:04.338Z,11.70
2023-05-24T20:43:33.625Z,12.20
2023-05-24T20:46:02.141Z,12.13
2023-05-24T20:48:30.600Z,12.27
2023-05-24T20:50:59.640Z,12.40
2023-05-24T20:53:27.848Z,12.30
2023-05-24T20:55:57.573Z,12.43
2023-05-24T20:58:27.124Z,13.00
2023-05-24T21:00:55.897Z,12.23
2023-05-24T21:03:27.667Z,13.07
2023-05-24T21:05:56.332Z,13.00
2023-05-24T21:08:25.445Z,12.60
2023-05-24T21:10:55.621Z,12.87
2023-05-24T21:13:27.208Z,12.90
2023-05-24T21:15:55.461Z,12.63
2023-05-24T21:18:24.462Z,13.10
2023-05-24T21:20:53.579Z,13.60
2023-05-24T21:23:21.774Z,12.70
2023-05-24T21:25:53.601Z,14.00
2023-05-24T21:28:21.703Z,13.33
2023-05-24T21:30:51.732Z,14.70
2023-05-24T21:33:20.581Z,14.80
2023-05-24T21:35:48.810Z,15.03
2023-05-24T21:38:17.575Z,14.23
2023-05-24T21:40:48.520Z,14.03
2023-05-24T21:43:17.612Z,14.30
2023-05-24T21:45:45.895Z,14.13
2023-05-24T21:48:15.965Z,14.30
2023-05-24T21:50:44.587Z,13.40
2023-05-24T21:53:12.720Z,13.30
2023-05-24T21:55:41.546Z,13.00
2023-05-24T21:58:11.572Z,13.07
2023-05-24T22:00:39.903Z,13.67
2023-05-24T22:03:09.740Z,12.50
2023-05-24T22:05:39.442Z,13.27
2023-05-24T22:08:08.610Z,13.20
2023-05-24T22:10:37.556Z,13.17
2023-05-24T22:13:05.795Z,12.67
2023-05-24T22:15:33.993Z,12.90
2023-05-24T22:18:03.508Z,13.13
2023-05-24T22:20:32.040Z,13.37
2023-05-24T22:23:05.729Z,13.30
2023-05-24T22:25:35.607Z,13.70
2023-05-24T22:28:04.594Z,14.03
2023-05-24T22:30:34.739Z,14.63
2023-05-24T22:33:04.027Z,13.40
2023-05-24T22:35:57.133Z,13.83
2023-05-24T22:38:30.240Z,13.27
2023-05-24T22:40:58.454Z,13.77
2023-05-24T22:43:27.862Z,12.87
2023-05-24T22:45:56.405Z,13.93
2023-05-24T22:48:26.610Z,15.50
2023-05-24T22:50:57.617Z,14.83
2023-05-24T22:53:27.151Z,14.97
2023-05-24T22:55:55.686Z,15.83
2023-05-24T22:58:25.612Z,14.87
2023-05-24T23:00:54.599Z,15.87
2023-05-24T23:03:25.835Z,15.17
2023-05-24T23:05:54.532Z,15.70
2023-05-24T23:08:22.906Z,16.23
2023-05-24T23:10:54.184Z,16.43
2023-05-24T23:13:22.318Z,16.77
2023-05-24T23:15:54.159Z,16.93
2023-05-24T23:18:25.926Z,17.03
2023-05-24T23:20:54.676Z,17.10
2023-05-24T23:23:23.360Z,17.43
2023-05-24T23:25:54.186Z,17.23
2023-05-24T23:28:23.317Z,16.73
2023-05-24T23:30:52.661Z,17.53
2023-05-24T23:33:20.988Z,16.70
2023-05-24T23:35:49.630Z,18.13
2023-05-24T23:38:18.611Z,16.73
2023-05-24T23:40:46.743Z,17.10
2023-05-24T23:43:20.636Z,18.57
2023-05-24T23:45:48.855Z,19.33
2023-05-24T23:48:18.471Z,17.57
2023-05-24T23:50:54.078Z,18.60
2023-05-24T23:53:23.675Z,19.47
2023-05-24T23:55:52.655Z,19.60
2023-05-24T23:58:22.132Z,19.63
